Alpha, Ohio
Current Conditions -  °F | °C
As of 10:58 AM on Thursday 30 Oct 2014 (Local Time) from KFFO Reporting Station
Broken Clouds Broken Clouds  
Wind Chill: 47°   Ceiling: 4100
Heat Index: 47°   Visibility: 10mi
Dew Point: 36°   Wind: 1mph
Humidity: 66%   Direction: NA
Pressure: 30.16"   Gusts: NA
Location:  39.71°N, 84.02°W
Report Text: KFFO 301458Z AUTO VRB01KT 10SM BKN041 08/02 A3016 RMK AO2 SLP220 T00830022 50004
Loading
Personal Weather Stations






























Interactive Weather Map
Tropical Storm Tracking
New forecast layout! Learn more

10-Day Weather Forecast

Advertisements
Track Severe Weather on mobile